Portada
METAR-TAF:

METAR-TAF

Aeroports :

Sainte-Marie, Madagascar

latitud: 17-05S, longitud: 049-49E, altitud: 2 m

Observació

L'informe es va fer fa 5 hores i 54 minuts, a les 06:00 UTC
Vent 6 kt del Sud-Oest
Temperatura 24°C
Humitat 100%
Pressió 1018 hPa
Visibilitat: 8000 m
Cel ennuvolat a una alçada de 1700 ft
Cel cobert a una alçada de 4000 ft
pluja

METAR: FMMS 300600Z 22006KT 8000 -RA BKN017 OVC040 24/24 Q1018

Hora: 14:54 (11:54 UTC)

Pronòstic

L'informe es va fer fa 54 minuts, a les 11:00 UTC
Pronòstic vàlid del 30 a les 12 UTC al 31 a les 12 UTC
Vent 14 kt del Sud/Sud-Est
Visibilitat: 9000 m
Escasses núvols a una alçada de 700 ft
Núvols disperses a una alçada de 1700 ft, Cumulus congestus.
Cel ennuvolat a una alçada de 3300 ft
Temporalment
l' 30 a les 12 UTC al 31 a les 06 UTC
Visibilitat: 3500 m
xàfecs de pluja

TAF: FMMS 301100Z 3012/3112 16014KT 9000 FEW007 SCT017TCU BKN033 TEMPO 3012/3106 3500 SHRA

Observacions i pronòstics meteorològics de més de 4000 aeroports (METAR i TAF).

Les estacions disponibles són els punts grocs i vermells al mapa.

Posi el ratolí al punt desitjat per veure el nom de l'estació.

Feu clic per veure les observacions i els pronòstics meteorològics.

Per canviar el mapa: feu clic els botons verds amb una creu de color negre per apropar; al botó verd amb un guió per allunyar la imatge; o en les fletxes verdes per a mapes adjacents.


METAR-TAF: